createdAt,value
2018-10-07T00:00:43.836Z,100415.73
2018-10-07T00:03:12.065Z,100412.20
2018-10-07T00:05:40.277Z,100414.80
2018-10-07T00:08:09.272Z,100403.05
2018-10-07T00:10:37.449Z,100410.00
2018-10-07T00:13:05.609Z,100405.55
2018-10-07T00:15:34.617Z,100405.95
2018-10-07T00:18:02.833Z,100403.31
2018-10-07T00:20:31.001Z,100401.09
2018-10-07T00:22:59.219Z,100397.14
2018-10-07T00:25:27.409Z,100400.70
2018-10-07T00:27:55.555Z,100395.39
2018-10-07T00:30:23.767Z,100398.51
2018-10-07T00:32:51.909Z,100396.30
2018-10-07T00:35:22.369Z,100392.73
2018-10-07T00:37:50.557Z,100395.27
2018-10-07T00:40:18.772Z,100401.72
2018-10-07T00:42:51.051Z,100392.76
2018-10-07T00:45:19.249Z,100390.95
2018-10-07T00:47:48.646Z,100384.66
2018-10-07T00:50:16.782Z,100388.53
2018-10-07T00:52:45.006Z,100387.06
2018-10-07T00:55:13.237Z,100398.75
2018-10-07T00:57:41.537Z,100396.92
2018-10-07T01:00:09.775Z,100391.38
2018-10-07T01:02:37.966Z,100398.64
2018-10-07T01:05:06.386Z,100393.91
2018-10-07T01:07:34.541Z,100391.83
2018-10-07T01:10:02.681Z,100389.77
2018-10-07T01:12:30.862Z,100390.69
2018-10-07T01:14:58.981Z,100388.66
2018-10-07T01:17:27.258Z,100390.75
2018-10-07T01:19:55.428Z,100384.93
2018-10-07T01:22:23.661Z,100390.91
2018-10-07T01:24:51.962Z,100391.39
2018-10-07T01:27:20.215Z,100383.85
2018-10-07T01:29:48.478Z,100382.19
2018-10-07T01:32:16.646Z,100376.49
2018-10-07T01:34:44.888Z,100382.55
2018-10-07T01:37:13.196Z,100383.20
2018-10-07T01:39:42.334Z,100383.50
2018-10-07T01:42:10.629Z,100381.39
2018-10-07T01:44:38.851Z,100386.50
2018-10-07T01:47:07.141Z,100384.75
2018-10-07T01:49:35.363Z,100382.55
2018-10-07T01:52:03.579Z,100380.70
2018-10-07T01:54:31.767Z,100382.44
2018-10-07T01:56:59.934Z,100385.52
2018-10-07T01:59:28.188Z,100382.41
2018-10-07T02:01:56.316Z,100395.02
2018-10-07T02:04:24.592Z,100399.81
2018-10-07T02:06:53.432Z,100395.48
2018-10-07T02:09:22.128Z,100397.20
2018-10-07T02:11:50.270Z,100396.99
2018-10-07T02:14:18.969Z,100395.59
2018-10-07T02:16:47.200Z,100411.55
2018-10-07T02:19:15.458Z,100410.16
2018-10-07T02:21:43.867Z,100413.17
2018-10-07T02:24:12.055Z,100411.42
2018-10-07T02:26:40.234Z,100413.94
2018-10-07T02:29:08.400Z,100416.95
2018-10-07T02:31:36.618Z,100425.80
2018-10-07T02:34:04.874Z,100424.95
2018-10-07T02:36:33.079Z,100431.05
2018-10-07T02:39:01.354Z,100433.06
2018-10-07T02:41:29.566Z,100434.64
2018-10-07T02:43:57.764Z,100435.11
2018-10-07T02:46:26.017Z,100441.47
2018-10-07T02:48:54.307Z,100434.00
2018-10-07T02:51:22.553Z,100444.05
2018-10-07T02:53:50.899Z,100442.74
2018-10-07T02:56:19.674Z,100449.58
2018-10-07T02:58:48.554Z,100442.50
2018-10-07T03:01:16.758Z,100442.94
2018-10-07T03:03:44.929Z,100451.75
2018-10-07T03:06:13.231Z,100443.38
2018-10-07T03:08:41.469Z,100437.38
2018-10-07T03:11:09.730Z,100442.14
2018-10-07T03:13:37.959Z,100446.81
2018-10-07T03:16:06.277Z,100450.77
2018-10-07T03:18:34.456Z,100453.42
2018-10-07T03:21:02.641Z,100447.00
2018-10-07T03:23:30.822Z,100444.61
2018-10-07T03:25:58.993Z,100449.28
2018-10-07T03:28:27.195Z,100456.28
2018-10-07T03:30:55.496Z,100459.22
2018-10-07T03:33:23.613Z,100457.19
2018-10-07T03:35:51.914Z,100460.24
2018-10-07T03:38:20.216Z,100449.32
2018-10-07T03:40:48.382Z,100453.13
2018-10-07T03:43:16.840Z,100463.49
2018-10-07T03:45:45.599Z,100465.42
2018-10-07T03:48:13.813Z,100483.50
2018-10-07T03:50:42.607Z,100474.36
2018-10-07T03:53:10.856Z,100491.84
2018-10-07T03:55:39.192Z,100491.22
2018-10-07T03:58:07.361Z,100487.02
2018-10-07T04:00:35.600Z,100490.58
2018-10-07T04:03:03.877Z,100496.45
2018-10-07T04:05:32.068Z,100499.86
2018-10-07T04:08:00.291Z,100502.06
2018-10-07T04:10:28.559Z,100511.44
2018-10-07T04:12:56.708Z,100510.02
2018-10-07T04:15:24.963Z,100517.89
2018-10-07T04:17:53.149Z,100510.96
2018-10-07T04:20:21.361Z,100511.68
2018-10-07T04:22:49.636Z,100518.05
2018-10-07T04:25:17.869Z,100515.88
2018-10-07T04:27:46.076Z,100516.70
2018-10-07T04:30:14.350Z,100527.75
2018-10-07T04:32:42.612Z,100525.17
2018-10-07T04:35:10.870Z,100521.50
2018-10-07T04:37:39.078Z,100521.62
2018-10-07T04:40:07.326Z,100525.02
2018-10-07T04:42:35.534Z,100531.16
2018-10-07T04:45:03.868Z,100530.88
2018-10-07T04:47:32.065Z,100522.52
2018-10-07T04:50:00.217Z,100527.03
2018-10-07T04:52:28.343Z,100527.55
2018-10-07T04:54:56.513Z,100526.86
2018-10-07T04:57:24.695Z,100532.63
2018-10-07T04:59:52.873Z,100532.13
2018-10-07T05:02:21.042Z,100546.17
2018-10-07T05:04:49.190Z,100543.52
2018-10-07T05:07:17.435Z,100544.95
2018-10-07T05:09:45.588Z,100549.91
2018-10-07T05:12:13.941Z,100550.05
2018-10-07T05:14:46.525Z,100552.94
2018-10-07T05:17:15.101Z,100558.45
2018-10-07T05:19:43.536Z,100560.48
2018-10-07T05:22:21.880Z,100568.55
2018-10-07T05:24:50.479Z,100575.90
2018-10-07T05:27:19.957Z,100583.38
2018-10-07T05:32:15.275Z,100600.65
2018-10-07T05:34:43.451Z,100604.07
2018-10-07T05:37:11.657Z,100599.14
2018-10-07T05:39:39.925Z,100596.98
2018-10-07T05:42:15.490Z,100603.30
2018-10-07T05:44:46.893Z,100610.03
2018-10-07T05:47:15.891Z,100622.67
2018-10-07T05:49:44.108Z,100619.66
2018-10-07T05:52:19.525Z,100623.95
2018-10-07T05:54:52.854Z,100630.30
2018-10-07T05:57:21.982Z,100647.00
2018-10-07T05:59:50.349Z,100645.55
2018-10-07T06:02:18.931Z,100650.95
2018-10-07T06:04:53.089Z,100663.64
2018-10-07T06:07:23.065Z,100667.67
2018-10-07T06:09:51.647Z,100675.41
2018-10-07T06:12:20.315Z,100674.17
2018-10-07T06:15:00.055Z,100667.20
2018-10-07T06:17:28.279Z,100685.00
2018-10-07T06:19:57.039Z,100688.02
2018-10-07T06:22:25.695Z,100683.70
2018-10-07T06:24:55.179Z,100688.78
2018-10-07T06:27:24.607Z,100696.12
2018-10-07T06:29:54.213Z,100719.55
2018-10-07T06:32:22.465Z,100730.53
2018-10-07T06:34:50.805Z,100742.81
2018-10-07T06:37:20.343Z,100745.03
2018-10-07T06:39:50.066Z,100760.92
2018-10-07T06:42:24.711Z,100767.25
2018-10-07T06:44:54.277Z,100772.68
2018-10-07T06:47:27.563Z,100779.03
2018-10-07T06:49:56.847Z,100783.00
2018-10-07T06:52:25.105Z,100787.36
2018-10-07T06:54:58.512Z,100783.87
2018-10-07T06:57:26.738Z,100791.80
2018-10-07T06:59:56.311Z,100802.47
2018-10-07T07:02:25.249Z,100796.16
2018-10-07T07:04:54.322Z,100803.23
2018-10-07T07:07:27.381Z,100811.75
2018-10-07T07:09:55.864Z,100821.05
2018-10-07T07:12:24.263Z,100826.40
2018-10-07T07:15:01.141Z,100827.84
2018-10-07T07:17:29.615Z,100833.46
2018-10-07T07:19:57.901Z,100839.39
2018-10-07T07:22:27.191Z,100849.94
2018-10-07T07:24:55.393Z,100862.23
2018-10-07T07:27:28.573Z,100861.41
2018-10-07T07:29:56.783Z,100881.10
2018-10-07T07:32:30.065Z,100889.13
2018-10-07T07:34:59.580Z,100889.56
2018-10-07T07:37:28.265Z,100895.09
2018-10-07T07:39:58.098Z,100892.34
2018-10-07T07:42:29.412Z,100906.45
2018-10-07T07:44:57.749Z,100903.12
2018-10-07T07:47:27.737Z,100918.69
2018-10-07T07:49:56.135Z,100930.61
2018-10-07T07:52:24.383Z,100942.00
2018-10-07T07:54:53.865Z,100945.99
2018-10-07T07:57:22.367Z,100957.87
2018-10-07T07:59:51.965Z,100973.25
2018-10-07T08:02:20.321Z,100980.92
2018-10-07T08:04:48.781Z,100998.90
2018-10-07T08:07:20.785Z,100995.67
2018-10-07T08:09:49.055Z,101006.11
2018-10-07T08:12:17.321Z,100998.45
2018-10-07T08:14:45.782Z,100991.00
2018-10-07T08:17:14.201Z,101005.25
2018-10-07T08:19:42.535Z,101002.73
2018-10-07T08:22:11.342Z,100999.77
2018-10-07T08:24:39.525Z,101006.52
2018-10-07T08:27:08.621Z,101006.36
2018-10-07T08:29:37.010Z,101028.27
2018-10-07T08:32:05.249Z,101027.03
2018-10-07T08:34:33.987Z,101037.50
2018-10-07T08:37:03.069Z,101054.78
2018-10-07T08:39:31.411Z,101057.70
2018-10-07T08:41:59.621Z,101059.95
2018-10-07T08:44:29.190Z,101062.55
2018-10-07T08:46:58.385Z,101062.68
2018-10-07T08:49:30.013Z,101064.16
2018-10-07T08:51:58.726Z,101073.61
2018-10-07T08:54:27.114Z,101083.00
2018-10-07T08:56:55.386Z,101092.06
2018-10-07T08:59:24.540Z,101098.56
2018-10-07T09:01:52.845Z,101109.23
2018-10-07T09:04:20.955Z,101109.06
2018-10-07T09:06:49.464Z,101121.05
2018-10-07T09:09:18.568Z,101125.16
2018-10-07T09:11:46.851Z,101127.39
2018-10-07T09:14:15.584Z,101137.35
2018-10-07T09:16:44.413Z,101139.22
2018-10-07T09:19:13.532Z,101139.95
2018-10-07T09:21:42.008Z,101138.95
2018-10-07T09:24:10.347Z,101156.48
2018-10-07T09:26:39.143Z,101167.12
2018-10-07T09:29:07.537Z,101171.25
2018-10-07T09:31:40.045Z,101179.78
2018-10-07T09:34:09.155Z,101190.43
2018-10-07T09:36:37.526Z,101194.51
2018-10-07T09:39:07.982Z,101190.61
2018-10-07T09:41:36.418Z,101197.06
2018-10-07T09:44:04.633Z,101218.31
2018-10-07T09:46:33.301Z,101213.38
2018-10-07T09:49:03.833Z,101211.29
2018-10-07T09:51:40.885Z,101205.83
2018-10-07T09:54:15.580Z,101221.13
2018-10-07T09:56:44.024Z,101233.67
2018-10-07T09:59:12.225Z,101234.01
2018-10-07T10:01:40.475Z,101231.98
2018-10-07T10:04:08.854Z,101246.10
2018-10-07T10:06:37.029Z,101241.92
2018-10-07T10:09:07.667Z,101264.16
2018-10-07T10:11:36.302Z,101267.61
2018-10-07T10:14:04.834Z,101270.03
2018-10-07T10:19:00.772Z,101275.77
2018-10-07T10:21:43.698Z,101283.66
2018-10-07T10:25:21.580Z,101290.75
2018-10-07T10:27:55.140Z,101292.30
2018-10-07T10:30:29.089Z,101305.92
2018-10-07T10:33:31.564Z,101297.19
2018-10-07T10:36:21.745Z,101306.87
2018-10-07T10:39:10.844Z,101314.53
2018-10-07T10:41:45.169Z,101327.54
2018-10-07T10:44:34.120Z,101338.69
2018-10-07T10:47:34.694Z,101348.04
2018-10-07T10:50:14.095Z,101351.78
2018-10-07T10:53:02.270Z,101339.13
2018-10-07T10:56:48.075Z,101347.60
2018-10-07T10:59:28.554Z,101337.56
2018-10-07T11:04:12.360Z,101340.59
2018-10-07T11:06:44.156Z,101347.88
2018-10-07T11:09:49.875Z,101342.17
2018-10-07T11:12:31.250Z,101357.09
2018-10-07T11:16:06.826Z,101358.98
2018-10-07T11:20:49.682Z,101365.98
2018-10-07T11:23:27.861Z,101357.81
2018-10-07T11:27:04.686Z,101359.42
2018-10-07T11:29:41.171Z,101354.21
2018-10-07T11:33:20.087Z,101360.72
2018-10-07T11:36:05.544Z,101370.05
2018-10-07T11:39:12.305Z,101366.97
2018-10-07T11:41:47.764Z,101370.00
2018-10-07T11:44:23.830Z,101380.14
2018-10-07T11:48:03.464Z,101379.81
2018-10-07T11:50:43.161Z,101381.42
2018-10-07T11:53:46.908Z,101390.41
2018-10-07T11:56:15.677Z,101392.20
2018-10-07T11:58:44.020Z,101394.68
2018-10-07T12:01:12.200Z,101393.01
2018-10-07T12:03:40.672Z,101399.05
2018-10-07T12:06:08.842Z,101396.78
2018-10-07T12:08:37.588Z,101402.02
2018-10-07T12:11:05.853Z,101406.16
2018-10-07T12:13:34.053Z,101411.74
2018-10-07T12:16:02.318Z,101424.61
2018-10-07T12:18:31.105Z,101421.91
2018-10-07T12:20:59.570Z,101417.54
2018-10-07T12:23:27.797Z,101412.81
2018-10-07T12:25:55.991Z,101412.98
2018-10-07T12:28:24.229Z,101422.42
2018-10-07T12:30:52.458Z,101422.73
2018-10-07T12:33:20.643Z,101428.29
2018-10-07T12:35:48.946Z,101431.83
2018-10-07T12:38:17.283Z,101427.26
2018-10-07T12:40:49.841Z,101426.16
2018-10-07T12:43:18.074Z,101432.66
2018-10-07T12:45:46.456Z,101430.91
2018-10-07T12:48:14.722Z,101426.41
2018-10-07T12:50:43.076Z,101444.84
2018-10-07T12:53:11.260Z,101445.92
2018-10-07T12:55:45.263Z,101445.62
2018-10-07T12:58:13.550Z,101448.27
2018-10-07T13:00:41.887Z,101452.89
2018-10-07T13:03:10.088Z,101455.65
2018-10-07T13:05:38.412Z,101459.72
2018-10-07T13:08:06.673Z,101447.31
2018-10-07T13:10:34.901Z,101449.36
2018-10-07T13:13:03.196Z,101458.41
2018-10-07T13:15:31.496Z,101467.03
2018-10-07T13:17:59.719Z,101472.35
2018-10-07T13:20:27.992Z,101469.86
2018-10-07T13:22:56.266Z,101473.56
2018-10-07T13:25:24.458Z,101476.36
2018-10-07T13:27:53.304Z,101472.91
2018-10-07T13:30:21.492Z,101480.68
2018-10-07T13:32:49.691Z,101492.39
2018-10-07T13:35:18.403Z,101489.76
2018-10-07T13:37:46.753Z,101494.98
2018-10-07T13:40:14.910Z,101493.31
2018-10-07T13:42:43.749Z,101496.28
2018-10-07T13:45:18.381Z,101503.27
2018-10-07T13:47:46.623Z,101504.67
2018-10-07T13:50:16.323Z,101513.07
2018-10-07T13:52:44.918Z,101523.38
2018-10-07T13:55:13.790Z,101520.97
2018-10-07T13:57:42.568Z,101525.81
2018-10-07T14:00:10.950Z,101528.59
2018-10-07T14:02:39.296Z,101538.80
2018-10-07T14:05:07.642Z,101549.38
2018-10-07T14:07:35.889Z,101544.16
2018-10-07T14:10:04.200Z,101547.22
2018-10-07T14:12:32.909Z,101546.14
2018-10-07T14:15:01.066Z,101550.96
2018-10-07T14:17:29.281Z,101551.55
2018-10-07T14:19:58.971Z,101551.79
2018-10-07T14:22:28.810Z,101550.84
2018-10-07T14:24:57.491Z,101551.41
2018-10-07T14:27:25.702Z,101556.23
2018-10-07T14:29:53.947Z,101561.69
2018-10-07T14:32:22.216Z,101566.50
2018-10-07T14:34:50.427Z,101567.85
2018-10-07T14:37:18.660Z,101565.34
2018-10-07T14:39:46.853Z,101570.95
2018-10-07T14:42:15.053Z,101569.95
2018-10-07T14:44:44.027Z,101564.03
2018-10-07T14:49:39.544Z,101586.58
2018-10-07T14:52:07.787Z,101586.48
2018-10-07T14:54:35.976Z,101597.88
2018-10-07T14:57:04.220Z,101594.42
2018-10-07T14:59:32.438Z,101608.61
2018-10-07T15:02:00.815Z,101606.00
2018-10-07T15:04:28.976Z,101614.25
2018-10-07T15:06:57.161Z,101613.33
2018-10-07T15:09:25.489Z,101616.86
2018-10-07T15:11:53.959Z,101614.45
2018-10-07T15:14:22.141Z,101613.57
2018-10-07T15:16:50.374Z,101612.16
2018-10-07T15:19:18.564Z,101609.84
2018-10-07T15:21:46.725Z,101617.38
2018-10-07T15:24:15.001Z,101618.95
2018-10-07T15:26:43.210Z,101618.14
2018-10-07T15:29:12.602Z,101618.14
2018-10-07T15:31:40.862Z,101626.42
2018-10-07T15:34:09.124Z,101624.00
2018-10-07T15:36:37.368Z,101631.21
2018-10-07T15:39:06.640Z,101627.86
2018-10-07T15:41:34.923Z,101630.81
2018-10-07T15:44:03.261Z,101635.23
2018-10-07T15:46:31.542Z,101630.02
2018-10-07T15:48:59.767Z,101632.84
2018-10-07T15:51:28.048Z,101632.84
2018-10-07T15:53:56.301Z,101633.31
2018-10-07T15:56:24.622Z,101634.05
2018-10-07T15:58:53.011Z,101644.41
2018-10-07T16:01:21.241Z,101648.58
2018-10-07T16:03:49.722Z,101656.26
2018-10-07T16:06:18.009Z,101651.95
2018-10-07T16:08:46.371Z,101653.11
2018-10-07T16:11:14.599Z,101658.52
2018-10-07T16:13:43.106Z,101662.97
2018-10-07T16:16:12.185Z,101674.70
2018-10-07T16:18:40.683Z,101669.48
2018-10-07T16:21:08.869Z,101678.01
2018-10-07T16:23:37.301Z,101682.42
2018-10-07T16:26:05.556Z,101692.90
2018-10-07T16:28:34.124Z,101691.44
2018-10-07T16:31:04.394Z,101682.02
2018-10-07T16:33:33.347Z,101700.56
2018-10-07T16:36:01.719Z,101699.68
2018-10-07T16:38:30.099Z,101703.98
2018-10-07T16:41:04.741Z,101702.55
2018-10-07T16:43:35.744Z,101704.77
2018-10-07T16:46:04.343Z,101712.75
2018-10-07T16:48:33.634Z,101723.45
2018-10-07T16:51:01.983Z,101722.23
2018-10-07T16:53:30.386Z,101727.91
2018-10-07T16:55:58.647Z,101727.47
2018-10-07T16:58:26.835Z,101727.73
2018-10-07T17:00:56.023Z,101733.81
2018-10-07T17:03:24.314Z,101744.64
2018-10-07T17:05:52.751Z,101750.61
2018-10-07T17:08:21.064Z,101755.48
2018-10-07T17:10:49.433Z,101761.45
2018-10-07T17:13:18.436Z,101763.58
2018-10-07T17:15:46.676Z,101768.28
2018-10-07T17:18:14.881Z,101772.37
2018-10-07T17:20:43.779Z,101785.15
2018-10-07T17:23:12.138Z,101783.63
2018-10-07T17:25:40.410Z,101788.94
2018-10-07T17:28:08.682Z,101791.04
2018-10-07T17:30:37.016Z,101784.17
2018-10-07T17:33:05.469Z,101784.77
2018-10-07T17:35:34.069Z,101794.60
2018-10-07T17:38:02.514Z,101791.02
2018-10-07T17:40:30.760Z,101800.50
2018-10-07T17:42:58.991Z,101803.05
2018-10-07T17:45:27.302Z,101802.84
2018-10-07T17:47:55.615Z,101804.99
2018-10-07T17:50:23.867Z,101806.63
2018-10-07T17:52:52.362Z,101812.52
2018-10-07T17:55:21.178Z,101820.50
2018-10-07T18:00:17.418Z,101818.97
2018-10-07T18:02:45.749Z,101824.70
2018-10-07T18:05:14.297Z,101835.04
2018-10-07T18:07:42.598Z,101839.90
2018-10-07T18:10:11.654Z,101834.83
2018-10-07T18:12:40.197Z,101833.13
2018-10-07T18:15:08.509Z,101832.30
2018-10-07T18:17:36.688Z,101833.92
2018-10-07T18:20:05.641Z,101841.36
2018-10-07T18:22:33.915Z,101838.02
2018-10-07T18:25:02.215Z,101845.91
2018-10-07T18:27:30.732Z,101852.92
2018-10-07T18:29:59.113Z,101857.37
2018-10-07T18:32:27.450Z,101859.19
2018-10-07T18:34:55.719Z,101861.05
2018-10-07T18:37:24.087Z,101857.39
2018-10-07T18:39:52.318Z,101857.75
2018-10-07T18:42:20.862Z,101863.09
2018-10-07T18:44:49.187Z,101866.99
2018-10-07T18:47:17.462Z,101866.52
2018-10-07T18:49:45.773Z,101868.41
2018-10-07T18:52:15.282Z,101866.22
2018-10-07T18:54:43.722Z,101869.73
2018-10-07T18:57:12.050Z,101875.64
2018-10-07T18:59:40.445Z,101876.86
2018-10-07T19:02:08.755Z,101883.86
2018-10-07T19:04:37.281Z,101889.12
2018-10-07T19:07:05.648Z,101882.80
2018-10-07T19:09:34.004Z,101880.02
2018-10-07T19:12:02.406Z,101882.80
2018-10-07T19:14:31.388Z,101893.52
2018-10-07T19:17:06.474Z,101890.59
2018-10-07T19:19:34.817Z,101895.72
2018-10-07T19:22:03.178Z,101893.11
2018-10-07T19:24:31.443Z,101891.23
2018-10-07T19:29:26.817Z,101889.50
2018-10-07T19:31:55.365Z,101890.05
2018-10-07T19:34:23.748Z,101892.71
2018-10-07T19:36:52.204Z,101900.28
2018-10-07T19:39:20.649Z,101898.98
2018-10-07T19:41:49.079Z,101901.64
2018-10-07T19:44:17.396Z,101899.62
2018-10-07T19:46:45.657Z,101907.28
2018-10-07T19:49:14.568Z,101902.30
2018-10-07T19:51:42.969Z,101903.02
2018-10-07T19:54:12.145Z,101907.63
2018-10-07T19:56:40.453Z,101898.76
2018-10-07T19:59:09.525Z,101906.86
2018-10-07T20:01:37.975Z,101914.03
2018-10-07T20:04:06.239Z,101910.28
2018-10-07T20:06:34.451Z,101920.45
2018-10-07T20:09:02.753Z,101922.06
2018-10-07T20:11:31.038Z,101921.64
2018-10-07T20:13:59.238Z,101929.16
2018-10-07T20:16:27.512Z,101923.00
2018-10-07T20:18:55.747Z,101927.62
2018-10-07T20:21:23.994Z,101929.47
2018-10-07T20:23:52.484Z,101934.30
2018-10-07T20:26:20.797Z,101928.09
2018-10-07T20:28:49.100Z,101928.77
2018-10-07T20:31:17.412Z,101923.34
2018-10-07T20:33:46.825Z,101930.09
2018-10-07T20:36:15.023Z,101934.98
2018-10-07T20:38:43.260Z,101937.08
2018-10-07T20:41:11.652Z,101945.33
2018-10-07T20:43:39.868Z,101947.45
2018-10-07T20:46:08.063Z,101951.75
2018-10-07T20:48:36.439Z,101953.22
2018-10-07T20:51:05.069Z,101955.23
2018-10-07T20:53:33.376Z,101955.89
2018-10-07T20:56:01.628Z,101957.83
2018-10-07T20:58:29.873Z,101948.38
2018-10-07T21:00:58.086Z,101957.28
2018-10-07T21:03:26.322Z,101954.05
2018-10-07T21:05:54.554Z,101951.97
2018-10-07T21:08:22.861Z,101955.27
2018-10-07T21:10:51.075Z,101948.75
2018-10-07T21:13:19.335Z,101966.29
2018-10-07T21:15:47.535Z,101958.39
2018-10-07T21:18:15.790Z,101961.34
2018-10-07T21:20:44.108Z,101956.10
2018-10-07T21:23:12.405Z,101952.52
2018-10-07T21:25:40.642Z,101961.08
2018-10-07T21:28:08.913Z,101960.95
2018-10-07T21:30:37.228Z,101960.74
2018-10-07T21:33:05.500Z,101954.57
2018-10-07T21:35:33.650Z,101958.73
2018-10-07T21:38:01.889Z,101962.64
2018-10-07T21:40:30.064Z,101965.02
2018-10-07T21:42:58.296Z,101963.52
2018-10-07T21:45:26.487Z,101971.70
2018-10-07T21:47:54.766Z,101968.33
2018-10-07T21:50:23.025Z,101958.77
2018-10-07T21:52:51.279Z,101968.55
2018-10-07T21:55:19.473Z,101960.15
2018-10-07T21:57:47.896Z,101964.42
2018-10-07T22:00:16.116Z,101950.79
2018-10-07T22:02:44.301Z,101962.45
2018-10-07T22:05:12.548Z,101959.49
2018-10-07T22:07:40.722Z,101949.60
2018-10-07T22:10:08.910Z,101947.44
2018-10-07T22:12:37.264Z,101948.63
2018-10-07T22:15:05.458Z,101941.85
2018-10-07T22:17:33.764Z,101944.45
2018-10-07T22:20:02.040Z,101939.38
2018-10-07T22:22:30.177Z,101934.31
2018-10-07T22:24:58.465Z,101929.61
2018-10-07T22:27:26.716Z,101925.73
2018-10-07T22:29:54.900Z,101930.55
2018-10-07T22:32:23.203Z,101926.55
2018-10-07T22:34:51.535Z,101924.56
2018-10-07T22:37:19.687Z,101922.48
2018-10-07T22:39:47.861Z,101917.50
2018-10-07T22:42:16.067Z,101921.38
2018-10-07T22:44:44.233Z,101912.03
2018-10-07T22:47:12.381Z,101922.48
2018-10-07T22:49:40.533Z,101919.60
2018-10-07T22:52:08.671Z,101921.86
2018-10-07T22:54:36.806Z,101922.00
2018-10-07T22:57:04.977Z,101924.77
2018-10-07T22:59:33.183Z,101933.89
2018-10-07T23:02:01.301Z,101936.83
2018-10-07T23:04:29.406Z,101929.92
2018-10-07T23:06:57.637Z,101934.49
2018-10-07T23:09:25.807Z,101941.16
2018-10-07T23:11:53.993Z,101944.33
2018-10-07T23:14:22.151Z,101942.92
2018-10-07T23:16:50.302Z,101944.57
2018-10-07T23:19:18.955Z,101950.80
2018-10-07T23:21:47.086Z,101949.07
2018-10-07T23:24:15.343Z,101947.67
2018-10-07T23:26:43.600Z,101956.28
2018-10-07T23:29:11.913Z,101961.69
2018-10-07T23:31:40.156Z,101961.84
2018-10-07T23:34:08.394Z,101961.25
2018-10-07T23:36:36.669Z,101961.86
2018-10-07T23:39:07.322Z,101962.18
2018-10-07T23:41:35.553Z,101964.06
2018-10-07T23:44:03.765Z,101972.14
2018-10-07T23:46:31.899Z,101966.25
2018-10-07T23:49:00.089Z,101969.92
2018-10-07T23:51:28.271Z,101970.80
2018-10-07T23:53:56.428Z,101969.67
2018-10-07T23:56:24.626Z,101972.50
2018-10-07T23:58:52.801Z,101980.12
